Date,TemperatureHighF,TemperatureAvgF,TemperatureLowF,DewpointHighF,DewpointAvgF,DewpointLowF,HumidityHigh,HumidityAvg,HumidityLow,PressureMaxIn,PressureMinIn,WindSpeedMaxMPH,WindSpeedAvgMPH,GustSpeedMaxMPH,PrecipitationSumIn
2013-1-1,30.6,24.0,12.1,25.0,12.5,0.0,86,63,43,29.78,29.52,16,7,0,0.00
2013-1-2,20.6,10.5,3.7,6.0,-0.9,-8.0,82,61,46,29.95,29.76,18,6,0,0.00
2013-1-3,21.8,10.1,1.3,4.0,-1.5,-8.0,78,60,42,30.00,29.86,8,2,0,0.00
2013-1-4,33.2,22.0,6.6,25.0,16.2,3.0,89,79,70,29.84,29.64,15,4,0,0.00
2013-1-5,33.9,28.3,15.8,26.0,17.3,10.0,82,64,47,30.18,29.64,19,6,0,0.00
2013-1-6,32.5,23.2,14.9,24.0,18.6,10.0,90,83,67,30.15,29.83,7,1,0,0.02
2013-1-7,27.2,21.6,16.2,24.0,16.4,12.0,92,81,59,30.32,29.85,10,2,0,0.00
2013-1-8,41.3,28.7,15.0,28.0,22.5,13.0,96,79,54,30.27,30.10,19,3,0,0.03
2013-1-9,38.8,28.4,18.1,35.0,25.3,16.0,94,88,77,30.32,29.79,10,1,0,0.00
2013-1-10,41.8,37.5,27.8,32.0,26.4,22.0,86,65,54,30.43,29.81,26,9,0,0.01
2013-1-11,35.7,29.4,21.9,30.0,22.6,18.0,90,76,54,30.45,30.16,5,1,0,0.00
2013-1-12,41.1,37.3,33.3,40.0,36.4,31.0,97,96,90,30.17,30.03,4,0,0,0.03
2013-1-13,46.1,40.9,37.0,46.0,40.3,36.0,100,98,97,30.07,29.86,7,2,0,0.01
2013-1-14,57.0,44.5,37.1,52.0,39.4,24.0,99,84,54,30.12,29.76,12,4,0,0.01
2013-1-15,37.9,33.7,28.7,26.0,23.7,21.0,79,67,58,30.23,30.13,7,1,0,0.00
2013-1-16,31.2,29.8,28.6,30.0,26.5,20.0,96,88,67,30.18,29.69,5,1,0,0.01
2013-1-17,38.2,26.7,15.5,34.0,19.6,1.0,96,77,45,30.04,29.68,14,4,0,0.15
2013-1-18,16.6,12.3,6.9,5.0,-2.9,-10.0,65,51,37,30.32,30.02,11,4,0,0.00
2013-1-19,39.3,30.7,15.7,30.0,20.3,6.0,79,66,57,30.27,29.78,17,3,0,0.01
2013-1-20,45.7,38.9,25.9,36.0,27.2,12.0,84,64,39,29.77,29.36,21,8,0,0.01
2013-1-21,25.1,20.1,13.2,15.0,5.2,-1.0,76,54,33,29.96,29.75,14,4,0,0.00
2013-1-22,18.2,13.1,7.6,13.0,4.4,-10.0,85,69,44,29.94,29.68,13,4,0,0.00
2013-1-23,7.3,2.8,-0.7,-10.0,-13.7,-16.0,55,46,37,30.01,29.93,16,6,0,0.00
2013-1-24,11.4,4.3,-2.7,-6.0,-11.7,-16.0,61,48,34,30.03,29.85,18,8,0,0.00
2013-1-25,19.8,10.8,1.6,2.0,-3.3,-9.0,70,54,35,30.12,29.98,15,5,0,0.00
2013-1-26,21.0,13.9,8.1,1.0,-1.9,-6.0,67,51,35,30.04,29.89,15,5,0,0.00
2013-1-27,24.4,15.8,8.9,3.0,-1.4,-5.0,64,48,33,30.33,30.03,19,6,0,0.00
2013-1-28,25.7,17.6,8.9,19.0,5.0,-6.0,92,62,26,30.35,29.99,6,1,0,0.00
2013-1-29,31.0,24.8,16.8,29.0,22.2,15.0,94,90,78,30.13,29.98,6,1,0,0.10
2013-1-30,51.6,43.2,30.8,51.0,42.5,30.0,98,97,94,30.06,29.36,18,5,0,0.33
2013-1-31,56.3,54.1,51.0,55.0,53.3,51.0,98,96,94,29.36,28.86,27,12,0,0.10
2013-2-1,-200.0,0.0,200.0,-99.9,-99.9,-99.9,0,0,100,0.00,40.00,0,-999,0,0.00
2013-2-2,-200.0,0.0,200.0,-99.9,-99.9,-99.9,0,0,100,0.00,40.00,0,-999,0,0.00
2013-2-3,-200.0,0.0,200.0,-99.9,-99.9,-99.9,0,0,100,0.00,40.00,0,-999,0,0.00
2013-2-4,28.2,16.1,14.2,13.0,-26.7,-99.9,74,33,34,29.77,0.00,21,-296,0,0.00
2013-2-5,25.2,16.1,7.7,9.0,0.7,-5.0,73,53,28,29.94,29.78,6,1,0,0.00
2013-2-6,36.4,23.8,15.7,24.0,11.9,-5.0,78,62,35,30.19,29.84,12,4,0,0.00
2013-2-7,19.8,13.8,9.3,-2.0,-7.5,-12.0,55,39,25,30.49,30.20,13,3,0,0.00
2013-2-8,16.8,12.7,9.3,15.0,6.4,-8.0,91,77,41,30.49,29.80,17,5,0,0.00
2013-2-9,19.3,14.0,10.0,13.0,10.0,8.0,90,84,67,30.01,29.57,28,14,0,0.00
2013-2-10,35.9,21.6,8.8,10.0,4.9,-1.0,71,51,27,30.26,30.01,12,3,0,0.00
2013-2-11,39.2,24.0,9.6,38.0,21.5,6.0,97,90,68,30.26,29.48,5,0,0,0.33
2013-2-12,42.5,36.1,30.6,33.0,30.7,28.0,97,82,62,29.68,29.44,17,5,0,0.04
2013-2-13,42.1,34.6,28.0,29.0,25.7,23.0,86,71,51,29.72,29.65,8,2,0,0.00
2013-2-14,39.8,32.5,24.7,25.0,22.3,20.0,85,67,46,29.91,29.63,11,2,0,0.00
2013-2-15,44.2,33.4,22.6,37.0,29.7,21.0,95,86,72,29.91,29.82,19,2,0,0.00
2013-2-16,34.5,31.6,27.0,32.0,29.3,15.0,96,91,61,29.85,29.67,14,4,0,0.01
2013-2-17,27.1,21.6,18.4,20.0,13.2,5.0,92,71,55,29.67,29.08,23,12,0,0.00
2013-2-18,29.4,21.0,13.6,11.0,5.0,0.0,60,51,39,29.94,29.37,26,14,0,0.00
2013-2-19,42.8,30.2,15.7,42.0,16.6,0.0,97,60,31,30.01,29.50,7,1,0,0.55
2013-2-20,43.1,42.7,42.3,42.0,41.8,41.0,96,96,96,29.48,29.45,4,2,0,0.04
2013-4-11,51.8,45.9,38.6,32.0,20.3,-99.9,58,39,27,30.10,29.91,11,-14,0,0.05
2013-4-12,38.6,35.0,32.9,33.0,24.1,15.0,96,68,41,30.18,29.82,8,3,0,0.26
2013-4-13,45.2,38.2,32.8,39.0,35.3,32.0,96,89,75,29.84,29.71,10,3,0,0.17
2013-4-14,50.5,42.5,37.9,42.0,38.5,33.0,100,86,58,30.09,29.81,12,1,0,0.06
2013-4-15,51.5,41.8,31.4,41.0,36.4,30.0,95,82,59,30.34,30.10,8,2,0,0.01
2013-4-16,53.2,46.2,38.8,47.0,40.5,35.0,98,81,53,30.34,29.88,17,6,0,0.02
2013-4-17,59.8,52.1,42.9,48.0,34.4,25.0,94,54,29,30.27,29.88,19,5,0,0.00
2013-4-18,49.1,43.0,32.6,40.0,31.7,24.0,90,66,37,30.39,30.09,8,2,0,0.00
2013-4-19,68.8,55.4,46.4,60.0,51.8,40.0,97,88,72,30.08,29.56,17,7,0,0.00
2013-4-20,58.2,51.9,42.1,57.0,41.7,26.0,97,72,41,30.06,29.49,24,7,0,0.33
2013-4-21,49.9,42.1,34.3,28.0,23.3,19.0,76,49,29,30.62,30.07,14,4,0,0.00
2013-4-22,49.0,39.0,29.2,36.0,25.9,16.0,90,63,29,30.73,30.58,8,2,0,0.00
2013-4-23,44.0,37.5,29.7,40.0,34.7,27.0,95,89,79,30.58,30.11,11,3,0,0.02
2013-4-24,61.5,48.2,41.3,52.0,45.3,40.0,97,90,71,30.11,29.70,12,5,0,0.08
2013-4-25,62.3,53.2,42.8,50.0,38.7,30.0,96,63,30,30.20,29.71,15,4,0,0.07
2013-4-26,57.0,46.6,35.5,36.0,32.4,30.0,89,60,38,30.35,30.21,10,1,0,0.00
2013-4-27,57.4,46.4,34.9,43.0,38.5,34.0,96,76,51,30.34,30.23,7,1,0,0.00
2013-4-28,63.9,50.5,36.5,45.0,36.3,29.0,97,65,28,30.26,30.17,15,2,0,0.00
2013-4-29,62.5,49.9,36.9,48.0,41.4,35.0,95,75,47,30.20,30.14,8,1,0,0.00
2013-4-30,66.1,51.8,38.5,47.0,37.8,24.0,97,65,25,30.30,30.17,10,1,0,0.00
2013-5-1,66.5,51.9,38.2,44.0,36.2,27.0,96,62,25,30.38,30.30,13,2,0,0.00
2013-5-2,62.0,50.4,41.9,50.0,41.1,33.0,96,73,42,30.45,30.33,8,2,0,0.00
2013-5-3,63.9,49.8,38.6,48.0,41.5,37.0,93,75,55,30.47,30.31,11,2,0,0.00
2013-5-4,60.0,47.5,38.4,44.0,39.9,36.0,94,77,48,30.33,30.25,7,1,0,0.00
2013-5-5,58.0,47.0,35.7,42.0,38.3,34.0,97,75,50,30.27,30.18,14,3,0,0.00
2013-5-6,61.5,48.9,39.8,48.0,43.5,39.0,97,83,55,30.20,30.10,19,3,0,0.01
2013-5-7,68.3,54.2,44.0,56.0,49.2,43.0,98,85,56,30.11,30.02,14,4,0,0.00
2013-5-8,72.1,60.2,49.5,63.0,55.9,48.0,98,86,67,30.16,30.06,11,2,0,0.17
2013-5-9,59.0,54.4,51.7,57.0,53.5,51.0,98,96,93,30.05,29.84,6,1,0,1.10
2013-5-10,69.1,56.6,50.4,62.0,54.2,50.0,98,92,70,29.90,29.82,11,1,0,0.02
2013-5-11,60.7,55.4,50.9,59.0,54.3,50.0,97,96,90,29.86,29.62,18,4,0,0.17
2013-5-12,66.2,57.4,49.9,61.0,54.8,44.0,98,91,74,29.64,29.45,11,2,0,0.05
2013-5-13,56.6,49.7,43.3,44.0,33.3,29.0,89,55,37,29.92,29.65,23,7,0,0.00
2013-5-14,55.8,49.2,41.4,42.0,34.9,31.0,83,60,41,29.94,29.86,13,4,0,0.00
2013-5-15,60.8,48.8,35.9,49.0,36.9,27.0,95,68,28,29.94,29.59,13,4,0,0.21
2013-5-16,76.9,60.0,47.5,57.0,47.5,39.0,98,69,26,29.70,29.48,15,4,0,0.00
2013-5-17,62.4,56.0,48.7,47.0,41.7,38.0,78,60,42,30.12,29.70,14,4,0,0.00
2013-5-18,60.3,50.9,41.8,45.0,43.3,40.0,96,77,55,30.27,30.11,7,1,0,0.00
2013-5-19,61.8,51.7,46.0,51.0,47.2,44.0,96,85,67,30.29,30.17,6,2,0,0.07
2013-5-20,71.7,57.7,50.0,63.0,55.4,49.0,98,92,73,30.16,29.84,6,1,0,0.56
2013-5-21,55.5,50.5,48.1,54.0,49.3,47.0,97,95,92,30.04,29.89,6,1,0,0.28
2013-5-22,54.9,50.8,48.1,52.0,49.6,47.0,98,95,91,29.97,29.83,7,1,0,0.45
2013-5-23,60.6,55.5,48.2,60.0,54.3,47.0,98,96,90,29.87,29.74,15,3,0,0.04
2013-5-24,63.1,58.3,50.0,63.0,57.6,49.0,98,97,94,29.77,29.58,15,5,0,1.26
2013-5-25,51.1,48.4,45.8,50.0,47.4,45.0,97,96,94,29.76,29.58,24,7,0,0.41
2013-5-26,55.2,48.8,44.6,47.0,44.6,40.0,98,86,66,29.89,29.52,12,6,0,0.42
2013-5-27,67.1,54.5,41.6,45.0,39.4,35.0,87,60,32,30.08,29.89,19,5,0,0.00
2013-5-28,69.0,56.1,41.6,47.0,41.2,35.0,95,62,29,30.16,30.09,17,3,0,0.00
2013-5-29,55.0,52.7,47.3,54.0,51.7,45.0,100,96,86,30.13,29.92,4,1,0,0.11
2013-5-30,83.0,67.2,53.0,69.0,60.7,53.0,99,82,54,29.95,29.88,13,2,0,0.00
2013-5-31,87.2,72.4,58.2,70.0,63.6,57.0,98,76,49,29.97,29.81,15,2,0,0.00
2013-6-1,86.9,74.4,61.7,73.0,65.1,60.0,95,74,55,29.84,29.73,15,3,0,0.00
2013-6-2,76.5,70.0,63.8,69.0,64.6,62.0,92,83,72,29.75,29.62,17,3,0,0.02
2013-6-3,71.6,65.3,58.2,68.0,62.4,57.0,98,90,79,29.74,29.64,13,4,0,0.07
2013-6-4,64.9,59.6,50.6,58.0,47.6,43.0,97,66,47,29.97,29.69,19,5,0,0.00
2013-6-5,69.2,58.4,48.9,51.0,45.7,41.0,85,64,39,30.08,29.97,15,3,0,0.00
2013-6-6,69.2,58.9,50.6,55.0,50.2,44.0,95,76,43,30.13,30.07,8,1,0,0.00
2013-6-7,59.6,55.4,51.8,53.0,50.7,45.0,96,85,60,30.07,29.87,6,1,0,0.07
2013-6-8,67.9,58.6,53.1,62.0,56.0,52.0,97,91,78,29.90,29.56,17,4,0,0.64
2013-6-9,70.7,62.4,56.9,62.0,58.4,56.0,96,87,68,30.06,29.90,8,1,0,0.22
2013-6-10,68.3,60.7,53.9,58.0,55.4,51.0,97,83,55,30.15,29.98,11,2,0,0.06
2013-6-11,56.0,54.7,54.0,55.0,53.6,53.0,97,96,94,29.98,29.46,11,3,0,0.03
2013-6-12,60.8,57.5,54.7,58.0,55.6,54.0,97,93,85,29.68,29.43,13,4,0,0.03
2013-6-13,69.7,58.8,51.0,58.0,53.6,48.0,98,84,47,29.72,29.66,6,2,0,0.03
2013-6-14,73.6,60.3,53.9,60.0,54.8,52.0,97,83,52,29.67,29.57,8,1,0,0.02
2013-6-15,75.7,63.5,51.3,52.0,49.3,45.0,95,64,35,29.82,29.66,13,3,0,0.02
2013-6-16,74.0,62.7,52.0,59.0,53.6,48.0,91,74,47,29.82,29.63,11,2,0,0.00
2013-6-17,79.3,65.0,55.2,65.0,60.0,54.0,97,85,55,29.79,29.64,15,2,0,0.01
2013-6-18,66.0,60.8,56.2,59.0,55.9,52.0,98,85,61,29.90,29.77,5,0,0,0.01
2013-6-19,73.7,62.1,52.9,56.0,51.1,45.0,97,71,37,30.06,29.84,9,2,0,0.00
2013-6-20,74.6,62.5,50.9,56.0,52.0,47.0,97,72,39,30.17,30.06,13,2,0,0.00
2013-6-21,78.5,64.9,54.3,59.0,56.4,53.0,97,77,43,30.15,30.09,11,1,0,0.00
2013-6-22,81.0,66.7,58.8,67.0,61.8,57.0,97,86,51,30.12,30.03,6,1,0,0.00
2013-6-23,74.3,67.1,63.5,67.0,64.7,62.0,97,92,76,30.06,29.89,10,2,0,0.00
2013-6-24,89.3,75.9,65.3,75.0,69.0,65.0,98,81,54,29.88,29.73,15,3,0,0.00
2013-6-25,86.0,76.0,68.1,74.0,68.6,66.0,96,79,57,29.78,29.63,11,2,0,0.00
2013-6-26,75.1,64.2,58.5,70.0,63.1,58.0,97,96,84,29.82,29.62,8,1,0,0.00
2013-6-27,65.3,58.5,55.2,62.0,57.1,54.0,97,95,86,29.82,29.76,7,1,0,0.00
2013-6-28,65.5,60.1,56.4,65.0,59.5,56.0,98,97,97,29.76,29.48,8,3,0,0.00
2013-6-29,71.0,65.7,63.1,70.0,64.6,62.0,99,96,88,29.63,29.49,11,3,0,0.00
2013-6-30,79.5,68.8,63.2,72.0,66.1,62.0,98,91,76,29.86,29.62,12,3,0,0.00
2013-7-1,75.3,68.3,63.5,72.0,67.1,62.0,98,96,87,30.03,29.86,5,1,0,0.01
2013-7-2,66.7,62.5,59.6,66.0,62.0,59.0,98,98,97,30.16,30.01,8,2,0,0.00
2013-7-3,78.6,65.3,58.4,72.0,63.2,58.0,99,93,79,30.14,30.03,6,1,0,0.00
2013-7-4,87.6,77.0,63.8,77.0,70.7,63.0,98,82,64,30.09,29.98,7,1,0,0.00
2013-7-5,88.8,79.8,69.1,76.0,72.5,68.0,97,79,61,30.03,29.92,14,3,0,0.01
2013-7-6,88.6,78.5,70.5,74.0,71.3,64.0,98,80,59,29.95,29.84,9,1,0,0.00
2013-7-7,86.8,77.8,68.2,74.0,67.5,62.0,87,72,51,29.89,29.82,8,2,0,0.00
2013-7-8,73.9,70.4,65.6,70.0,66.7,60.0,96,88,72,29.99,29.82,7,2,0,0.00
2013-7-9,69.2,64.7,61.5,67.0,63.1,61.0,97,94,91,30.06,30.00,4,0,0,0.00
2013-7-10,68.4,63.8,60.5,68.0,62.6,60.0,98,95,89,30.03,29.71,4,1,0,0.00
2013-7-11,80.2,72.0,67.4,73.0,69.5,67.0,100,92,69,29.90,29.68,7,1,0,0.00
2013-7-12,72.9,67.0,63.1,66.0,60.1,58.0,85,78,66,30.08,29.90,8,4,0,0.00
2013-7-15,91.8,83.8,71.3,74.0,69.9,66.0,90,65,48,30.09,29.98,7,2,0,0.00
2013-7-16,90.0,78.8,69.6,74.0,69.7,66.0,95,75,52,30.09,30.01,8,1,0,0.00
2013-7-17,82.5,74.4,67.1,74.0,68.9,66.0,96,83,70,30.11,29.86,13,3,0,0.00
2013-7-18,84.7,75.2,69.3,73.0,69.4,62.0,98,83,54,29.95,29.85,7,2,0,0.16
2013-7-19,90.1,79.2,69.3,78.0,73.1,68.0,97,82,65,29.88,29.57,10,3,0,0.00
2013-7-20,88.5,79.3,72.7,74.0,70.4,64.0,90,74,53,29.71,29.53,25,4,0,0.00
2013-7-21,75.9,70.0,63.7,64.0,59.9,55.0,93,72,51,29.97,29.72,7,1,0,0.00
2013-7-22,73.5,66.7,60.9,66.0,60.9,57.0,96,82,57,29.99,29.87,7,1,0,0.00
2013-7-23,68.5,65.0,61.2,68.0,64.0,59.0,98,96,93,29.86,29.48,6,1,0,0.99
2013-7-24,81.2,69.4,60.6,74.0,64.5,52.0,98,85,64,29.92,29.52,10,2,0,0.01
2013-7-25,72.8,62.9,55.9,61.0,55.9,50.0,95,78,61,30.05,29.91,10,3,0,0.01
2013-7-26,68.7,65.0,62.3,65.0,62.8,61.0,96,92,85,30.02,29.82,14,6,0,0.13
2013-7-27,80.3,70.8,62.1,69.0,64.2,61.0,96,80,61,29.97,29.86,12,2,0,0.00
2013-7-28,71.9,66.0,62.3,67.0,64.2,61.0,97,94,83,29.99,29.95,5,1,0,0.00
2013-7-29,75.3,66.6,62.3,69.0,64.6,62.0,97,93,79,30.00,29.93,5,1,0,0.07
2013-7-30,79.1,68.6,60.7,67.0,62.5,57.0,98,82,46,30.00,29.93,11,2,0,0.34
2013-7-31,78.0,67.9,57.4,64.0,59.7,55.0,94,77,53,30.05,29.97,11,2,0,0.00
2013-8-1,77.0,68.2,60.8,69.0,63.9,60.0,97,86,64,29.98,29.82,8,1,0,0.00
2013-8-2,75.6,66.2,63.0,69.0,64.3,62.0,97,94,78,29.82,29.69,7,1,0,0.33
2013-8-3,74.9,65.8,59.9,67.0,62.3,58.0,98,89,69,29.76,29.66,10,1,0,0.41
2013-8-4,76.4,64.8,56.4,63.0,59.1,55.0,95,83,53,29.76,29.66,10,2,0,0.08
2013-8-5,72.4,62.9,54.2,57.0,52.6,46.0,92,71,49,29.96,29.75,14,4,0,0.00
2013-8-6,75.0,63.2,50.0,59.0,52.7,46.0,90,70,49,30.09,29.95,11,2,0,0.00
2013-8-7,74.6,65.0,54.4,64.0,59.3,53.0,97,83,56,30.12,30.05,9,1,0,0.00
2013-8-8,74.6,66.2,61.2,70.0,63.7,59.0,97,91,84,30.06,29.95,6,1,0,0.00
2013-8-9,71.2,67.9,66.6,70.0,67.0,66.0,98,97,95,29.95,29.66,12,3,0,0.73
2013-8-10,79.1,71.0,60.0,69.0,60.8,52.0,98,73,41,29.92,29.67,13,3,0,0.05
2013-8-11,76.1,65.7,51.8,59.0,55.1,50.0,93,70,51,29.98,29.90,12,4,0,0.00
2013-8-12,78.5,66.8,57.1,64.0,59.4,56.0,96,79,52,29.93,29.83,11,1,0,0.00
2013-8-13,74.2,65.8,58.4,69.0,62.4,57.0,97,89,75,29.84,29.63,10,1,0,0.00
2013-8-14,76.0,67.1,59.0,67.0,60.0,50.0,98,80,50,29.80,29.54,15,3,0,0.00
2013-8-15,73.9,63.3,53.1,59.0,53.8,50.0,90,73,49,30.00,29.81,7,3,0,0.00
2013-8-16,76.2,64.5,54.0,62.0,56.7,53.0,97,78,50,30.10,29.99,8,1,0,0.00
2013-8-17,77.4,66.0,57.1,62.0,57.8,54.0,97,77,48,30.20,30.10,10,1,0,0.00
2013-8-18,76.0,64.5,54.0,62.0,58.4,53.0,97,82,56,30.20,29.98,10,1,0,0.00
2013-8-19,82.6,70.4,57.6,65.0,62.0,57.0,98,77,51,29.98,29.81,13,2,0,0.00
2013-8-20,82.8,71.9,61.8,68.0,63.5,60.0,96,76,55,30.00,29.87,11,2,0,0.00
2013-8-21,83.9,72.1,62.3,69.0,64.5,61.0,98,79,54,30.05,29.91,12,2,0,0.00
2013-8-22,84.2,72.7,62.3,70.0,66.0,61.0,96,81,59,29.91,29.68,13,3,0,0.00
2013-8-23,77.2,70.4,60.4,67.0,57.8,51.0,93,66,45,30.07,29.70,13,3,0,0.00
2013-8-24,77.6,64.9,54.4,55.0,51.6,47.0,90,65,34,30.23,30.07,6,1,0,0.00
2013-8-25,79.0,64.9,53.8,59.0,55.4,50.0,97,74,42,30.28,30.07,15,2,0,0.00
2013-8-26,78.2,66.6,60.8,69.0,63.1,59.0,95,89,71,30.07,29.79,7,2,0,0.00
2013-8-27,83.8,71.4,62.6,70.0,65.5,62.0,98,83,58,29.83,29.76,7,1,0,0.00
2013-8-28,81.5,69.8,63.9,69.0,65.0,63.0,97,86,58,29.93,29.80,6,1,0,0.00
2013-8-29,68.3,64.2,56.4,65.0,60.7,55.0,96,88,78,30.04,29.91,14,2,0,0.00
2013-8-30,77.2,66.3,55.9,67.0,61.8,55.0,97,86,71,29.95,29.70,10,2,0,0.00
2013-8-31,82.5,71.2,64.8,71.0,67.2,63.0,96,87,63,29.75,29.69,8,1,0,0.00
2013-9-1,81.4,72.7,67.8,73.0,69.0,66.0,98,89,70,29.85,29.69,5,0,0,0.00
2013-9-2,68.6,65.8,62.2,67.0,65.1,61.0,99,97,94,29.84,29.67,10,2,0,2.62
2013-9-3,76.5,69.4,65.5,71.0,67.5,65.0,99,94,79,29.71,29.63,7,1,0,0.11
2013-9-4,77.9,67.9,58.4,66.0,61.1,57.0,98,80,51,29.82,29.67,11,3,0,0.01
2013-9-5,66.5,59.7,52.7,60.0,52.4,45.0,95,78,52,30.06,29.78,7,2,0,0.00
2013-9-6,66.4,56.0,44.5,54.0,46.5,40.0,92,73,41,30.15,29.96,14,2,0,0.00
2013-9-7,72.6,61.4,50.4,62.0,54.9,49.0,96,80,56,29.97,29.72,10,1,0,0.00
2013-9-8,65.2,59.1,48.0,59.0,50.6,41.0,96,75,48,29.99,29.64,17,4,0,0.00
2013-9-9,63.3,54.5,42.8,54.0,46.8,40.0,91,76,53,30.13,29.99,13,3,0,0.00
2013-9-10,64.7,60.7,54.2,62.0,57.7,52.0,96,90,82,30.04,29.96,14,2,0,0.00
2013-9-11,85.1,72.1,62.2,76.0,68.3,61.0,98,88,73,29.98,29.81,21,2,0,0.00
2013-9-12,74.6,67.8,64.6,70.0,66.7,64.0,98,96,86,29.91,29.59,11,2,0,0.00
2013-9-13,68.8,64.3,58.6,68.0,63.6,58.0,98,97,92,29.65,29.52,9,2,0,0.00
2013-9-14,68.5,61.3,54.9,60.0,56.1,51.0,96,84,65,29.95,29.64,9,2,0,0.00
2013-9-15,64.9,56.7,46.9,56.0,51.2,46.0,97,83,59,30.06,29.93,12,2,0,0.00
2013-9-16,64.7,55.9,46.6,57.0,51.3,39.0,96,85,68,30.18,29.89,15,3,0,0.00
2013-9-17,65.2,52.2,41.2,52.0,43.0,37.0,94,73,47,30.33,30.19,9,2,0,0.00
2013-9-18,70.1,55.5,43.4,53.0,47.4,42.0,97,77,45,30.23,30.02,10,2,0,0.00
2013-9-19,73.2,58.2,47.3,57.0,50.5,46.0,100,79,47,30.05,29.95,12,1,0,0.00
2013-9-20,74.2,60.0,49.7,60.0,53.5,49.0,97,82,51,30.04,29.95,5,0,0,0.02
2013-9-21,65.5,60.8,55.8,62.0,58.7,55.0,98,93,85,29.96,29.70,13,3,0,0.00
2013-9-22,69.4,63.6,51.6,64.0,59.8,47.0,97,87,66,29.69,29.51,12,5,0,0.25
2013-9-23,57.0,51.4,46.8,47.0,43.3,41.0,88,74,63,29.86,29.69,18,6,0,0.00
2013-9-24,56.2,50.8,47.0,46.0,43.3,41.0,85,76,66,29.85,29.76,12,4,0,0.00
2013-9-25,62.9,54.5,45.2,50.0,46.5,42.0,92,75,56,29.90,29.79,11,3,0,0.00
2013-9-26,64.4,56.3,47.9,53.0,49.2,44.0,90,77,64,30.05,29.90,12,4,0,0.00
2013-9-27,69.9,60.0,53.0,57.0,53.0,51.0,95,79,57,30.17,30.05,10,2,0,0.00
2013-9-28,71.2,58.1,50.0,57.0,52.5,49.0,97,83,54,30.27,30.17,5,1,0,0.00
2013-9-29,65.6,54.1,47.4,57.0,49.9,46.0,98,87,54,30.20,30.05,5,1,0,0.01
2013-9-30,64.9,52.9,45.0,55.0,49.5,44.0,98,89,62,30.08,29.90,5,1,0,0.01
2013-10-1,74.4,58.5,46.7,60.0,52.2,46.0,97,82,49,29.90,29.75,8,2,0,0.02
2013-10-2,78.2,63.8,51.6,62.0,55.8,51.0,98,77,53,29.82,29.67,11,2,0,0.00
2013-10-3,74.5,61.0,51.2,55.0,50.1,46.0,93,70,45,29.98,29.82,7,1,0,0.00
2013-10-4,70.5,58.4,48.8,58.0,52.1,48.0,98,81,55,30.02,29.94,5,0,0,0.00
2013-10-5,61.9,55.9,49.0,53.0,47.2,44.0,95,73,56,30.08,30.00,4,0,0,0.00
2013-10-6,55.7,50.8,46.5,49.0,44.0,39.0,96,78,56,30.21,30.08,5,1,0,0.08
2013-10-7,67.5,59.4,49.5,66.0,58.7,48.0,98,97,93,30.14,29.73,17,4,0,0.61
2013-10-8,62.0,54.9,43.1,61.0,46.3,41.0,96,75,51,30.32,29.76,12,4,0,0.00
2013-10-9,61.2,48.4,40.0,48.0,42.2,39.0,97,82,49,30.42,30.29,6,1,0,0.01
2013-10-10,63.0,49.6,40.1,50.0,44.7,39.0,98,85,57,30.30,30.12,6,0,0,0.00
2013-10-11,66.0,54.8,46.8,57.0,51.2,46.0,97,88,62,30.12,30.05,6,0,0,0.01
2013-10-12,60.5,53.9,50.2,53.0,50.1,47.0,96,87,71,30.36,30.10,6,1,0,0.00
2013-10-13,57.3,51.6,43.1,49.0,46.8,41.0,95,84,63,30.40,30.32,6,0,0,0.00
2013-10-14,59.8,50.1,40.6,51.0,45.7,40.0,98,86,61,30.32,30.18,12,1,0,0.01
2013-10-15,66.3,57.2,52.1,55.0,52.5,50.0,95,85,65,30.21,30.14,7,1,0,0.00
2013-10-16,59.9,56.4,54.0,55.0,53.7,52.0,95,90,77,30.14,29.82,7,1,0,0.00
2013-10-17,68.5,58.1,52.5,59.0,54.8,51.0,96,89,71,29.82,29.64,8,2,0,0.00
2013-10-18,67.4,57.9,49.6,59.0,52.0,45.0,98,82,54,29.76,29.51,13,4,0,0.29
2013-10-19,62.5,52.8,44.4,50.0,45.0,39.0,89,76,52,29.86,29.68,11,2,0,0.00
2013-10-20,61.2,54.1,42.9,53.0,42.8,33.0,95,69,38,29.88,29.59,16,5,0,0.01
2013-10-21,60.9,48.9,37.4,49.0,41.5,35.0,93,77,50,30.01,29.88,7,2,0,0.00
2013-10-22,60.5,54.2,45.1,54.0,50.2,43.0,95,86,71,29.90,29.62,20,4,0,0.25
2013-10-23,52.2,44.6,37.9,43.0,39.7,37.0,97,84,58,29.70,29.51,7,1,0,0.01
2013-10-24,51.5,44.0,34.4,39.0,32.9,29.0,91,67,43,29.74,29.52,20,4,0,0.00
2013-10-25,48.9,40.5,32.6,35.0,31.6,27.0,91,72,51,30.01,29.74,11,4,0,0.00
2013-10-26,50.5,41.5,28.7,38.0,32.4,26.0,92,72,51,30.03,29.79,14,4,0,0.00
2013-10-27,54.9,45.8,37.1,43.0,37.4,29.0,95,74,53,29.93,29.70,19,4,0,0.08
2013-10-28,53.6,41.9,33.2,39.0,31.6,25.0,88,68,53,30.27,29.93,19,5,0,0.00
2013-10-29,47.6,35.4,26.5,30.0,26.1,19.0,93,72,33,30.38,30.27,7,1,0,0.00
2013-10-30,48.8,36.2,28.8,34.0,29.0,25.0,95,78,41,30.28,30.09,12,1,0,0.00
2013-10-31,57.2,44.0,30.1,56.0,42.6,29.0,97,95,88,30.17,29.71,19,2,0,0.30
2013-11-1,64.0,59.0,56.2,60.0,56.3,52.0,97,91,82,29.70,29.29,21,8,0,0.39
2013-11-2,63.4,52.8,43.6,51.0,46.2,42.0,96,79,55,29.69,29.49,8,2,0,0.02
2013-11-3,45.0,38.7,31.9,41.0,27.5,21.0,88,66,44,30.34,29.68,14,6,0,0.02
2013-11-4,40.5,32.8,26.9,26.0,21.0,18.0,91,63,42,30.63,30.34,9,3,0,0.00
2013-11-5,46.8,35.2,26.4,35.0,30.0,23.0,95,82,58,30.64,30.43,11,1,0,0.00
2013-11-6,53.3,45.7,34.5,50.0,42.2,33.0,100,87,75,30.42,29.92,16,4,0,0.00
2013-11-7,58.2,51.2,38.2,56.0,47.4,31.0,95,87,68,29.91,29.55,14,6,0,0.05
2013-11-8,46.6,38.6,31.5,30.0,26.4,24.0,80,62,47,29.90,29.69,14,6,0,0.00
2013-11-9,45.1,37.6,31.5,30.0,24.6,22.0,88,61,41,30.03,29.90,14,4,0,0.00
2013-11-10,42.8,38.3,33.8,40.0,35.9,29.0,97,91,82,29.99,29.63,5,1,0,0.03
2013-11-11,46.6,40.2,36.1,36.0,32.3,29.0,96,74,54,29.93,29.66,11,4,0,0.00
2013-11-12,44.7,33.8,27.2,33.0,22.0,16.0,76,62,54,30.02,29.74,14,7,0,0.00
2013-11-13,35.0,28.3,24.1,18.0,14.9,12.0,69,58,45,30.14,30.00,13,5,0,0.00
2013-11-14,47.8,36.2,26.6,30.0,24.9,18.0,86,65,42,30.00,29.90,8,2,0,0.00
2013-11-15,51.3,37.7,28.8,36.0,29.4,24.0,96,76,36,30.09,29.99,12,1,0,0.00
2013-11-16,53.4,39.4,32.4,44.0,34.9,31.0,95,85,62,30.27,30.09,5,0,0,0.00
2013-11-17,53.1,45.8,39.0,52.0,43.4,38.0,97,92,80,30.27,29.85,6,1,0,0.10
2013-11-18,62.0,54.3,46.5,59.0,48.9,36.0,98,83,53,29.82,29.40,18,4,0,0.24
2013-11-19,47.0,37.4,31.6,37.0,23.7,18.0,71,58,49,30.11,29.49,23,9,0,0.00
2013-11-20,40.0,31.8,25.3,22.0,16.1,12.0,83,54,33,30.54,30.12,11,4,0,0.00
2013-11-21,45.1,32.1,21.3,29.0,22.2,12.0,92,70,27,30.55,30.26,7,1,0,0.00
2013-11-22,37.4,34.4,30.7,35.0,29.4,21.0,95,82,65,30.24,29.70,3,0,0,0.02
2013-11-23,41.1,34.4,25.7,36.0,24.2,15.0,96,69,37,29.73,29.59,21,6,0,0.00
2013-11-24,25.6,22.6,20.0,23.0,11.0,6.0,91,62,46,29.70,29.59,26,13,0,0.00
2013-11-25,31.7,25.1,18.6,18.0,6.6,2.0,58,46,34,30.23,30.15,15,4,0,0.00
2013-11-26,32.7,30.7,26.7,30.0,25.6,16.0,95,82,53,30.22,30.08,11,2,0,0.02
2013-11-27,59.5,48.2,31.7,59.0,47.3,31.0,98,96,92,30.06,29.08,24,5,0,2.36
2013-11-28,37.7,29.6,21.0,36.0,17.9,7.0,92,63,41,30.30,29.21,23,8,0,0.00
2013-11-29,26.9,21.2,16.5,12.0,10.1,7.0,79,63,44,30.65,30.30,15,4,0,0.00
2013-11-30,28.9,22.1,14.4,24.0,13.5,6.0,85,71,38,30.73,30.34,7,1,0,0.00
2013-12-1,33.8,31.6,28.7,33.0,29.2,23.0,97,91,80,30.34,29.99,6,1,0,0.47
2013-12-2,37.8,34.6,33.7,37.0,33.9,33.0,97,97,96,29.98,29.84,7,3,0,0.53
2013-12-3,40.9,35.7,31.4,39.0,34.3,29.0,98,95,88,29.84,29.77,8,3,0,0.00
2013-12-4,42.2,33.4,27.7,31.0,27.5,25.0,93,80,63,30.14,29.80,12,3,0,0.00
2013-12-5,47.2,35.2,26.3,46.0,33.9,25.0,97,95,93,30.18,29.83,7,0,0,0.02
2013-12-6,46.3,41.3,35.9,46.0,39.2,30.0,98,92,75,30.03,29.77,6,2,0,0.08
2013-12-7,37.7,32.4,24.4,30.0,21.1,10.0,91,65,47,30.33,29.98,15,4,0,0.00
2013-12-8,28.1,25.1,23.3,15.0,11.3,9.0,70,56,45,30.50,30.32,14,4,0,0.00
2013-12-9,32.5,25.9,23.0,32.0,20.2,11.0,100,80,58,30.46,29.75,7,2,0,0.00
2013-12-10,32.0,25.9,20.8,31.0,24.2,16.0,96,93,80,29.82,29.64,6,1,0,0.00
2013-12-11,28.0,21.3,13.5,21.0,17.1,11.0,92,84,71,30.04,29.83,12,3,0,0.04
2013-12-12,20.8,14.5,9.8,14.0,4.2,-2.0,83,65,46,30.16,29.91,13,4,0,0.00
2013-12-13,21.6,15.2,5.7,13.0,4.8,-5.0,83,64,50,30.30,29.82,14,6,0,0.00
2013-12-14,12.4,7.6,2.1,8.0,-3.9,-8.0,88,60,43,30.55,30.30,9,3,0,0.00
2013-12-15,16.8,12.6,9.1,14.0,10.2,7.0,91,89,88,30.29,29.32,24,6,0,0.00
2013-12-16,23.8,14.5,5.5,15.0,5.1,-7.0,92,69,40,30.12,29.58,18,5,0,0.00
2013-12-17,12.8,6.0,-4.8,8.0,-1.3,-11.0,89,73,56,30.23,29.95,9,3,0,0.00
2013-12-18,27.4,18.0,10.7,23.0,15.4,8.0,92,89,82,29.95,29.76,17,5,0,0.05
2013-12-19,31.3,24.9,17.9,25.0,21.6,15.0,94,87,77,30.00,29.84,7,2,0,0.00
2013-12-20,39.2,30.7,23.7,37.0,28.9,22.0,95,93,87,30.04,29.82,5,0,0,0.11
2013-12-21,33.1,31.1,27.1,32.0,30.0,26.0,96,95,94,29.87,29.75,8,2,0,0.14
2013-12-22,32.5,28.9,25.6,32.0,27.8,24.0,97,95,94,30.01,29.81,10,4,0,0.35
2013-12-23,32.2,29.5,26.1,32.0,28.6,25.0,97,96,96,30.03,29.89,0,0,0,0.00
2013-12-24,32.1,24.5,13.4,31.0,22.1,9.0,97,90,84,30.09,29.97,0,0,0,0.00
2013-12-25,17.6,11.2,6.4,13.0,7.3,1.0,92,84,78,30.47,30.09,0,0,0,0.00
2013-12-26,24.5,17.7,11.5,23.0,16.0,10.0,95,92,91,30.43,29.99,0,0,0,0.00
2013-12-27,30.3,20.4,11.2,28.0,18.6,9.0,94,92,89,30.12,30.04,0,0,0,0.13
2013-12-28,34.1,26.5,18.0,31.0,24.7,16.0,96,92,86,30.09,29.86,2,0,0,0.03
2013-12-29,33.0,26.1,18.8,32.0,25.0,17.0,97,95,93,29.94,29.45,15,2,0,0.13
2013-12-30,30.4,18.9,4.0,28.0,15.8,-1.0,95,88,74,30.09,29.43,13,4,0,0.01
2013-12-31,8.6,3.4,-2.2,4.0,-0.3,-5.0,89,84,76,30.10,29.96,6,1,0,0.00
2014-1-1,19.6,6.8,-4.2,12.0,2.2,-7.0,92,82,63,30.33,30.04,14,2,0,0.00
2014-1-2,6.5,-2.4,-7.3,1.0,-6.8,-11.0,92,82,75,30.38,29.92,20,8,0,0.00